Allensworth, California
Current Conditions -  °F | °C
As of 6:55 AM on Friday 31 Oct 2014 (Local Time) from KPTV Reporting Station
Clear Clear  
Wind Chill: 52°   Ceiling: Unl
Heat Index: 52°   Visibility: 10mi
Dew Point: 41°   Wind: 10mph
Humidity: 67%   Direction: 120°ESE
Pressure: 29.91"   Gusts: NA
Location:  35.856°N, 119.335°W
Report Text: KPTV 311355Z AUTO 12009KT 10SM CLR 11/05 A2991 RMK AO1
Loading
Personal Weather Stations






























Interactive Weather Map
Tropical Storm Tracking
New forecast layout! Learn more

10-Day Weather Forecast

Advertisements
Track Severe Weather on mobile